GMAD/AGA METAR and TAF weather

Enter ICAO airport designator
Station Type Date Time Source
GMAD METAR 2020/04/05 05:00 UTC NOAA

GMAD 050500Z 11003KT CAVOK 14/13 Q1014 NOSIG


Station Type Date Time Source
GMAD Decoded METAR 2020/04/05 05:00 UTC NOAA

Agadir Al Massira, Morocco (GMAD) 30-20N 009-24W 74M
Apr 05, 2020 - 01:00 AM EDT / 2020.04.05 0500 UTC
Wind: from the ESE (110 degrees) at 3 MPH (3 KT):0
Visibility: greater than 7 mile(s):0
Temperature: 57 F (14 C)
Dew Point: 55 F (13 C)
Relative Humidity: 93%
Pressure (altimeter): 29.94 in. Hg (1014 hPa)
ob: GMAD 050500Z 11003KT CAVOK 14/13 Q1014 NOSIG
cycle: 5

Station Type Date Time Source
GMAD TAF 2020/04/05 06:45 UTC NOAA

TAF TAF GMAD 050500Z 0506/0612 11003KT CAVOK
BECMG 0514/0516 27012KT

Example: see airport list